createdAt,value
2023-03-13T00:01:16.890Z,10.80
2023-03-13T00:03:44.709Z,10.82
2023-03-13T00:06:14.253Z,10.82
2023-03-13T00:08:42.836Z,10.83
2023-03-13T00:11:12.990Z,10.84
2023-03-13T00:13:40.946Z,10.83
2023-03-13T00:16:10.828Z,10.85
2023-03-13T00:18:38.861Z,10.83
2023-03-13T00:21:09.278Z,10.71
2023-03-13T00:23:39.939Z,10.79
2023-03-13T00:26:10.400Z,10.87
2023-03-13T00:28:40.017Z,10.87
2023-03-13T00:31:10.623Z,10.85
2023-03-13T00:33:40.879Z,10.92
2023-03-13T00:36:10.273Z,10.97
2023-03-13T00:38:42.738Z,10.94
2023-03-13T00:41:13.013Z,11.04
2023-03-13T00:43:42.332Z,10.94
2023-03-13T00:46:11.389Z,11.08
2023-03-13T00:48:39.374Z,11.09
2023-03-13T00:51:08.660Z,11.09
2023-03-13T00:53:36.639Z,11.07
2023-03-13T00:56:07.742Z,11.09
2023-03-13T00:58:37.271Z,11.07
2023-03-13T01:01:09.814Z,11.08
2023-03-13T01:03:38.977Z,11.10
2023-03-13T01:06:09.336Z,11.13
2023-03-13T01:08:37.302Z,11.14
2023-03-13T01:11:08.872Z,11.12
2023-03-13T01:13:37.288Z,11.11
2023-03-13T01:16:06.708Z,11.01
2023-03-13T01:18:35.439Z,11.09
2023-03-13T01:21:03.652Z,11.15
2023-03-13T01:23:31.543Z,11.14
2023-03-13T01:25:59.660Z,11.15
2023-03-13T01:28:28.854Z,11.09
2023-03-13T01:30:56.669Z,11.20
2023-03-13T01:33:24.439Z,11.23
2023-03-13T01:35:52.277Z,11.24
2023-03-13T01:38:20.048Z,11.27
2023-03-13T01:40:49.648Z,11.27
2023-03-13T01:43:26.697Z,11.30
2023-03-13T01:46:13.636Z,11.29
2023-03-13T01:49:01.686Z,11.39
2023-03-13T01:51:35.359Z,11.40
2023-03-13T01:54:07.597Z,11.44
2023-03-13T01:56:39.915Z,11.45
2023-03-13T01:59:11.731Z,11.40
2023-03-13T02:01:43.061Z,11.46
2023-03-13T02:04:11.208Z,11.43
2023-03-13T02:06:47.499Z,11.44
2023-03-13T02:09:17.914Z,11.55
2023-03-13T02:11:51.264Z,11.58
2023-03-13T02:14:22.509Z,11.60
2023-03-13T02:16:52.886Z,11.62
2023-03-13T02:19:28.684Z,11.68
2023-03-13T02:22:03.013Z,11.67
2023-03-13T02:24:38.862Z,11.69
2023-03-13T02:27:08.719Z,11.68
2023-03-13T02:29:39.996Z,11.69
2023-03-13T02:32:08.853Z,11.70
2023-03-13T02:34:39.858Z,11.71
2023-03-13T02:37:10.874Z,11.66
2023-03-13T02:39:42.895Z,11.49
2023-03-13T02:42:12.861Z,11.61
2023-03-13T02:44:46.390Z,11.61
2023-03-13T02:47:19.665Z,11.57
2023-03-13T02:49:47.465Z,11.54
2023-03-13T02:52:19.039Z,11.46
2023-03-13T02:54:51.301Z,11.52
2023-03-13T02:57:22.504Z,11.50
2023-03-13T02:59:50.340Z,11.48
2023-03-13T03:02:18.128Z,11.48
2023-03-13T03:04:45.927Z,11.44
2023-03-13T03:07:13.720Z,11.44
2023-03-13T03:09:41.763Z,11.42
2023-03-13T03:12:14.232Z,11.44
2023-03-13T03:14:43.430Z,11.41
2023-03-13T03:17:11.496Z,11.39
2023-03-13T03:19:41.264Z,11.41
2023-03-13T03:22:10.151Z,11.43
2023-03-13T03:24:38.010Z,11.47
2023-03-13T03:27:06.268Z,11.48
2023-03-13T03:29:42.700Z,11.48
2023-03-13T03:32:10.704Z,11.53
2023-03-13T03:34:39.170Z,11.56
2023-03-13T03:37:07.792Z,11.56
2023-03-13T03:39:36.681Z,11.53
2023-03-13T03:42:06.541Z,11.55
2023-03-13T03:44:34.504Z,11.56
2023-03-13T03:47:03.916Z,11.56
2023-03-13T03:49:36.166Z,11.57
2023-03-13T03:52:04.033Z,11.58
2023-03-13T03:54:36.758Z,11.60
2023-03-13T03:57:05.604Z,11.63
2023-03-13T03:59:34.080Z,11.66
2023-03-13T04:02:09.477Z,11.69
2023-03-13T04:04:37.713Z,11.73
2023-03-13T04:07:15.923Z,11.73
2023-03-13T04:09:44.627Z,11.76
2023-03-13T04:12:20.943Z,11.79
2023-03-13T04:14:51.701Z,11.82
2023-03-13T04:17:20.848Z,11.89
2023-03-13T04:19:51.538Z,11.91
2023-03-13T04:22:19.452Z,11.94
2023-03-13T04:24:51.513Z,11.90
2023-03-13T04:27:20.896Z,12.01
2023-03-13T04:29:49.972Z,12.09
2023-03-13T04:32:45.311Z,12.14
2023-03-13T04:35:39.016Z,12.14
2023-03-13T04:38:21.753Z,12.16
2023-03-13T04:41:12.987Z,12.20
2023-03-13T04:43:52.498Z,12.17
2023-03-13T04:46:40.502Z,12.19
2023-03-13T04:49:23.267Z,12.22
2023-03-13T04:51:53.641Z,12.22
2023-03-13T04:54:36.402Z,12.21
2023-03-13T04:57:12.118Z,12.23
2023-03-13T04:59:56.680Z,12.23
2023-03-13T05:02:40.159Z,12.27
2023-03-13T05:05:41.740Z,12.24
2023-03-13T05:08:38.532Z,12.25
2023-03-13T05:11:20.794Z,12.21
2023-03-13T05:14:02.822Z,12.26
2023-03-13T05:17:05.779Z,12.30
2023-03-13T05:19:58.294Z,12.33
2023-03-13T05:22:44.258Z,12.40
2023-03-13T05:25:17.721Z,12.46
2023-03-13T05:28:05.871Z,12.48
2023-03-13T05:30:56.372Z,12.47
2023-03-13T05:33:33.264Z,12.45
2023-03-13T05:36:14.638Z,12.50
2023-03-13T05:39:13.063Z,12.53
2023-03-13T05:41:52.148Z,12.59
2023-03-13T05:44:55.458Z,12.56
2023-03-13T05:47:47.128Z,12.59
2023-03-13T05:50:34.475Z,12.62
2023-03-13T05:53:22.312Z,12.62
2023-03-13T05:56:00.181Z,12.62
2023-03-13T05:58:57.008Z,12.61
2023-03-13T06:01:52.916Z,12.57
2023-03-13T06:04:41.214Z,12.64
2023-03-13T06:07:09.354Z,12.58
2023-03-13T06:09:37.129Z,12.62
2023-03-13T06:12:06.841Z,12.71
2023-03-13T06:14:34.722Z,12.71
2023-03-13T06:17:17.508Z,12.76
2023-03-13T06:19:45.439Z,12.75
2023-03-13T06:22:13.209Z,12.79
2023-03-13T06:24:41.024Z,12.80
2023-03-13T06:27:10.150Z,12.77
2023-03-13T06:29:38.032Z,12.78
2023-03-13T06:32:06.481Z,12.80
2023-03-13T06:34:34.431Z,12.81
2023-03-13T06:37:02.343Z,12.91
2023-03-13T06:39:30.211Z,12.92
2023-03-13T06:41:58.035Z,12.88
2023-03-13T06:44:27.320Z,12.80
2023-03-13T06:46:55.322Z,12.84
2023-03-13T06:49:23.094Z,12.80
2023-03-13T06:51:50.900Z,12.76
2023-03-13T06:54:18.648Z,12.74
2023-03-13T06:56:46.426Z,12.69
2023-03-13T06:59:14.121Z,12.67
2023-03-13T07:01:43.188Z,12.69
2023-03-13T07:04:13.631Z,12.67
2023-03-13T07:06:41.684Z,12.72
2023-03-13T07:09:10.341Z,12.80
2023-03-13T07:11:38.111Z,12.86
2023-03-13T07:14:16.588Z,12.69
2023-03-13T07:16:46.913Z,13.02
2023-03-13T07:19:15.269Z,12.98
2023-03-13T07:21:44.040Z,13.09
2023-03-13T07:24:11.861Z,13.12
2023-03-13T07:26:40.297Z,13.17
2023-03-13T07:29:08.928Z,13.26
2023-03-13T07:31:36.705Z,13.38
2023-03-13T07:34:06.056Z,13.43
2023-03-13T07:36:35.485Z,13.49
2023-03-13T07:39:03.294Z,13.60
2023-03-13T07:41:30.997Z,13.70
2023-03-13T07:43:58.738Z,13.71
2023-03-13T07:46:26.713Z,13.73
2023-03-13T07:48:55.284Z,13.70
2023-03-13T07:51:42.202Z,13.83
2023-03-13T07:54:11.814Z,13.85
2023-03-13T07:56:40.617Z,13.86
2023-03-13T07:59:08.517Z,13.83
2023-03-13T08:01:36.553Z,13.83
2023-03-13T08:04:05.618Z,13.81
2023-03-13T08:06:36.543Z,13.72
2023-03-13T08:09:04.869Z,13.85
2023-03-13T08:11:32.631Z,13.81
2023-03-13T08:14:00.401Z,13.76
2023-03-13T08:16:29.642Z,13.78
2023-03-13T08:18:59.617Z,13.84
2023-03-13T08:21:29.135Z,13.84
2023-03-13T08:24:00.095Z,13.82
2023-03-13T08:26:29.423Z,13.81
2023-03-13T08:28:59.139Z,13.84
2023-03-13T08:31:28.317Z,13.82
2023-03-13T08:33:56.040Z,13.81
2023-03-13T08:36:26.078Z,13.79
2023-03-13T08:38:55.395Z,13.76
2023-03-13T08:41:26.087Z,13.85
2023-03-13T08:43:54.321Z,13.85
2023-03-13T08:46:22.492Z,13.82
2023-03-13T08:48:52.276Z,13.89
2023-03-13T08:51:21.886Z,13.89
2023-03-13T08:53:50.842Z,13.89
2023-03-13T08:56:20.633Z,14.06
2023-03-13T08:58:52.229Z,14.14
2023-03-13T09:01:21.378Z,14.15
2023-03-13T09:03:49.156Z,14.07
2023-03-13T09:06:17.469Z,14.06
2023-03-13T09:08:45.575Z,14.06
2023-03-13T09:11:15.366Z,14.07
2023-03-13T09:13:45.540Z,14.12
2023-03-13T09:16:16.490Z,14.12
2023-03-13T09:18:44.813Z,14.14
2023-03-13T09:21:15.464Z,14.18
2023-03-13T09:23:43.328Z,14.24
2023-03-13T09:26:11.703Z,14.19
2023-03-13T09:28:39.439Z,14.14
2023-03-13T09:31:08.744Z,13.99
2023-03-13T09:33:37.935Z,14.21
2023-03-13T09:36:06.275Z,14.25
2023-03-13T09:38:34.104Z,14.28
2023-03-13T09:41:06.728Z,14.37
2023-03-13T09:43:43.558Z,14.28
2023-03-13T09:46:17.698Z,14.32
2023-03-13T09:48:50.138Z,14.40
2023-03-13T09:51:22.590Z,14.40
2023-03-13T09:53:54.620Z,14.47
2023-03-13T09:56:25.921Z,14.60
2023-03-13T09:58:56.805Z,14.67
2023-03-13T10:01:29.792Z,14.68
2023-03-13T10:04:07.861Z,14.64
2023-03-13T10:06:41.335Z,14.60
2023-03-13T10:09:21.253Z,14.77
2023-03-13T10:11:58.849Z,14.79
2023-03-13T10:14:32.120Z,14.84
2023-03-13T10:17:08.281Z,14.88
2023-03-13T10:19:42.274Z,14.93
2023-03-13T10:22:14.540Z,15.01
2023-03-13T10:24:49.280Z,15.11
2023-03-13T10:27:17.105Z,15.21
2023-03-13T10:29:44.877Z,15.34
2023-03-13T10:32:15.467Z,15.38
2023-03-13T10:34:51.629Z,15.44
2023-03-13T10:37:24.420Z,15.41
2023-03-13T10:39:52.775Z,15.35
2023-03-13T10:42:29.114Z,15.34
2023-03-13T10:44:59.180Z,15.39
2023-03-13T10:47:27.248Z,15.41
2023-03-13T10:49:59.667Z,15.42
2023-03-13T10:52:33.829Z,15.44
2023-03-13T10:55:04.110Z,15.66
2023-03-13T10:57:32.861Z,15.75
2023-03-13T11:00:06.307Z,15.90
2023-03-13T11:02:36.417Z,16.17
2023-03-13T11:05:33.469Z,16.72
2023-03-13T11:08:13.237Z,16.47
2023-03-13T11:10:54.713Z,16.40
2023-03-13T11:13:36.962Z,16.25
2023-03-13T11:16:19.746Z,16.16
2023-03-13T11:19:14.566Z,16.14
2023-03-13T11:21:58.113Z,16.21
2023-03-13T11:24:31.864Z,16.16
2023-03-13T11:27:09.145Z,16.10
2023-03-13T11:29:48.685Z,16.03
2023-03-13T11:32:24.150Z,16.10
2023-03-13T11:34:55.734Z,16.17
2023-03-13T11:37:29.398Z,16.19
2023-03-13T11:40:06.684Z,16.15
2023-03-13T11:42:49.032Z,16.38
2023-03-13T11:45:33.145Z,16.32
2023-03-13T11:48:08.921Z,16.39
2023-03-13T11:50:41.208Z,16.34
2023-03-13T11:53:32.048Z,16.38
2023-03-13T11:56:14.691Z,16.42
2023-03-13T11:58:55.129Z,17.21
2023-03-13T12:01:27.196Z,17.28
2023-03-13T12:04:19.916Z,16.77
2023-03-13T12:06:53.218Z,16.73
2023-03-13T12:09:29.986Z,16.92
2023-03-13T12:12:03.757Z,16.69
2023-03-13T12:14:34.775Z,16.61
2023-03-13T12:17:07.096Z,16.55
2023-03-13T12:19:42.397Z,16.43
2023-03-13T12:22:19.533Z,16.39
2023-03-13T12:24:54.709Z,16.39
2023-03-13T12:27:32.582Z,16.42
2023-03-13T12:32:57.229Z,16.96
2023-03-13T12:35:31.658Z,17.49
2023-03-13T12:38:06.045Z,17.59
2023-03-13T12:40:41.247Z,17.26
2023-03-13T12:43:15.562Z,17.09
2023-03-13T12:46:03.838Z,17.04
2023-03-13T12:49:07.228Z,17.41
2023-03-13T12:51:47.616Z,17.14
2023-03-13T12:54:47.837Z,17.13
2023-03-13T12:57:29.197Z,17.02
2023-03-13T13:00:00.219Z,16.87
2023-03-13T13:02:30.751Z,16.76
2023-03-13T13:05:02.460Z,16.73
2023-03-13T13:07:33.208Z,16.73
2023-03-13T13:10:17.777Z,16.69
2023-03-13T13:12:48.447Z,16.60
2023-03-13T13:15:21.410Z,16.51
2023-03-13T13:18:15.730Z,16.58
2023-03-13T13:20:48.545Z,16.51
2023-03-13T13:23:26.990Z,16.37
2023-03-13T13:25:56.506Z,16.37
2023-03-13T13:28:34.606Z,16.29
2023-03-13T13:31:03.157Z,16.33
2023-03-13T13:33:41.628Z,16.28
2023-03-13T13:36:29.828Z,16.18
2023-03-13T13:38:58.791Z,16.15
2023-03-13T13:41:35.794Z,16.17
2023-03-13T13:44:31.469Z,16.02
2023-03-13T13:47:01.880Z,15.95
2023-03-13T13:49:54.765Z,16.00
2023-03-13T13:52:40.983Z,16.00
2023-03-13T13:55:41.704Z,15.96
2023-03-13T13:58:15.314Z,16.27
2023-03-13T14:00:47.193Z,16.28
2023-03-13T14:03:21.729Z,16.19
2023-03-13T14:05:52.456Z,16.10
2023-03-13T14:08:25.350Z,16.06
2023-03-13T14:10:56.362Z,16.05
2023-03-13T14:13:24.914Z,16.18
2023-03-13T14:15:54.776Z,16.23
2023-03-13T14:18:25.094Z,16.26
2023-03-13T14:20:56.191Z,16.44
2023-03-13T14:23:39.786Z,16.55
2023-03-13T14:26:13.675Z,16.52
2023-03-13T14:28:43.538Z,16.53
2023-03-13T14:31:22.877Z,16.42
2023-03-13T14:33:51.053Z,16.32
2023-03-13T14:36:19.117Z,16.18
2023-03-13T14:38:55.631Z,16.08
2023-03-13T14:41:26.463Z,16.05
2023-03-13T14:43:54.233Z,16.00
2023-03-13T14:46:31.666Z,15.95
2023-03-13T14:49:07.985Z,15.98
2023-03-13T14:51:40.396Z,15.91
2023-03-13T14:54:26.624Z,16.02
2023-03-13T14:57:05.477Z,16.03
2023-03-13T14:59:33.516Z,16.03
2023-03-13T15:02:05.379Z,16.06
2023-03-13T15:04:59.346Z,16.07
2023-03-13T15:07:29.313Z,16.01
2023-03-13T15:09:57.601Z,16.03
2023-03-13T15:12:25.472Z,15.84
2023-03-13T15:14:55.964Z,15.89
2023-03-13T15:17:27.160Z,15.95
2023-03-13T15:19:57.483Z,15.89
2023-03-13T15:22:31.258Z,15.92
2023-03-13T15:25:07.884Z,15.88
2023-03-13T15:27:35.971Z,15.87
2023-03-13T15:30:03.905Z,15.91
2023-03-13T15:32:35.500Z,15.90
2023-03-13T15:35:03.991Z,15.82
2023-03-13T15:37:32.207Z,15.87
2023-03-13T15:39:59.969Z,15.92
2023-03-13T15:42:27.761Z,15.89
2023-03-13T15:44:55.463Z,15.87
2023-03-13T15:47:24.567Z,15.92
2023-03-13T15:49:53.679Z,15.86
2023-03-13T15:52:23.520Z,15.87
2023-03-13T15:54:52.359Z,15.91
2023-03-13T15:57:31.269Z,15.98
2023-03-13T15:59:59.000Z,16.08
2023-03-13T16:02:26.800Z,16.18
2023-03-13T16:04:56.455Z,16.17
2023-03-13T16:07:24.494Z,16.17
2023-03-13T16:09:52.635Z,16.06
2023-03-13T16:12:20.786Z,16.05
2023-03-13T16:14:54.456Z,15.95
2023-03-13T16:17:28.099Z,15.93
2023-03-13T16:19:57.540Z,15.85
2023-03-13T16:22:25.640Z,15.82
2023-03-13T16:24:53.358Z,15.79
2023-03-13T16:27:21.645Z,15.65
2023-03-13T16:29:49.495Z,15.67
2023-03-13T16:32:18.767Z,15.56
2023-03-13T16:34:46.749Z,15.42
2023-03-13T16:37:18.669Z,15.38
2023-03-13T16:39:48.309Z,15.31
2023-03-13T16:42:15.979Z,15.25
2023-03-13T16:44:43.651Z,15.12
2023-03-13T16:47:22.613Z,15.10
2023-03-13T16:49:50.452Z,15.06
2023-03-13T16:52:19.709Z,15.02
2023-03-13T16:54:47.931Z,14.93
2023-03-13T16:57:18.747Z,14.93
2023-03-13T16:59:46.628Z,14.89
2023-03-13T17:02:16.420Z,14.88
2023-03-13T17:04:45.022Z,14.90
2023-03-13T17:07:23.069Z,14.87
2023-03-13T17:09:54.826Z,14.88
2023-03-13T17:12:22.668Z,14.83
2023-03-13T17:14:52.345Z,14.78
2023-03-13T17:17:22.399Z,14.64
2023-03-13T17:19:50.468Z,14.75
2023-03-13T17:22:20.350Z,14.62
2023-03-13T17:24:49.095Z,14.67
2023-03-13T17:27:18.878Z,14.68
2023-03-13T17:29:46.815Z,14.68
2023-03-13T17:32:16.142Z,14.70
2023-03-13T17:34:46.331Z,14.64
2023-03-13T17:37:19.503Z,14.59
2023-03-13T17:39:51.353Z,14.58
2023-03-13T17:42:19.500Z,14.58
2023-03-13T17:44:49.837Z,14.52
2023-03-13T17:47:23.438Z,14.51
2023-03-13T17:49:51.201Z,14.49
2023-03-13T17:52:18.978Z,14.42
2023-03-13T17:54:48.079Z,14.41
2023-03-13T17:57:17.867Z,14.39
2023-03-13T17:59:45.810Z,14.27
2023-03-13T18:02:15.676Z,14.29
2023-03-13T18:04:44.951Z,14.21
2023-03-13T18:07:18.666Z,14.19
2023-03-13T18:09:47.914Z,14.06
2023-03-13T18:12:16.428Z,14.14
2023-03-13T18:14:46.718Z,14.00
2023-03-13T18:17:17.834Z,14.06
2023-03-13T18:19:46.000Z,14.05
2023-03-13T18:22:21.417Z,14.12
2023-03-13T18:24:50.583Z,14.07
2023-03-13T18:27:20.056Z,14.01
2023-03-13T18:29:50.014Z,14.05
2023-03-13T18:32:19.705Z,13.99
2023-03-13T18:34:47.657Z,13.85
2023-03-13T18:37:23.289Z,13.86
2023-03-13T18:39:53.049Z,13.81
2023-03-13T18:42:27.062Z,13.77
2023-03-13T18:44:56.343Z,13.83
2023-03-13T18:47:27.215Z,13.77
2023-03-13T18:49:56.051Z,13.86
2023-03-13T18:52:24.334Z,13.90
2023-03-13T18:54:53.495Z,13.91
2023-03-13T18:57:21.398Z,13.88
2023-03-13T18:59:49.251Z,13.86
2023-03-13T19:02:19.161Z,13.86
2023-03-13T19:04:47.212Z,13.83
2023-03-13T19:07:16.715Z,13.82
2023-03-13T19:09:46.808Z,13.81
2023-03-13T19:12:16.619Z,13.77
2023-03-13T19:14:44.956Z,13.77
2023-03-13T19:17:21.191Z,13.72
2023-03-13T19:19:48.876Z,13.58
2023-03-13T19:22:23.164Z,13.67
2023-03-13T19:24:51.171Z,13.68
2023-03-13T19:27:20.988Z,13.65
2023-03-13T19:29:48.857Z,13.64
2023-03-13T19:32:18.984Z,13.49
2023-03-13T19:34:47.007Z,13.50
2023-03-13T19:37:16.884Z,13.42
2023-03-13T19:39:44.992Z,13.39
2023-03-13T19:42:13.087Z,13.15
2023-03-13T19:44:42.505Z,13.25
2023-03-13T19:47:14.477Z,13.23
2023-03-13T19:49:42.669Z,13.23
2023-03-13T19:52:10.474Z,13.11
2023-03-13T19:54:38.287Z,13.20
2023-03-13T19:57:06.121Z,13.04
2023-03-13T19:59:37.955Z,12.88
2023-03-13T20:02:10.284Z,12.72
2023-03-13T20:04:39.886Z,12.78
2023-03-13T20:07:08.310Z,12.90
2023-03-13T20:09:36.800Z,12.71
2023-03-13T20:12:05.385Z,12.85
2023-03-13T20:14:33.283Z,13.04
2023-03-13T20:17:01.221Z,12.96
2023-03-13T20:19:30.437Z,13.03
2023-03-13T20:22:05.142Z,12.97
2023-03-13T20:24:34.360Z,12.97
2023-03-13T20:27:05.022Z,13.07
2023-03-13T20:29:33.830Z,13.09
2023-03-13T20:32:07.049Z,13.15
2023-03-13T20:34:36.448Z,13.12
2023-03-13T20:37:04.452Z,13.08
2023-03-13T20:39:38.360Z,13.07
2023-03-13T20:42:08.937Z,13.05
2023-03-13T20:44:38.090Z,12.80
2023-03-13T20:47:10.748Z,12.83
2023-03-13T20:49:41.480Z,12.86
2023-03-13T20:52:09.394Z,12.81
2023-03-13T20:54:38.676Z,12.66
2023-03-13T20:57:08.839Z,12.85
2023-03-13T20:59:37.077Z,12.82
2023-03-13T21:02:07.219Z,12.63
2023-03-13T21:04:40.077Z,12.73
2023-03-13T21:07:12.429Z,12.78
2023-03-13T21:09:40.543Z,12.77
2023-03-13T21:12:10.579Z,12.73
2023-03-13T21:14:38.664Z,12.80
2023-03-13T21:17:12.841Z,12.78
2023-03-13T21:19:40.874Z,12.78
2023-03-13T21:22:10.223Z,12.75
2023-03-13T21:24:40.511Z,12.70
2023-03-13T21:27:10.941Z,12.65
2023-03-13T21:29:38.632Z,12.56
2023-03-13T21:32:06.661Z,12.53
2023-03-13T21:34:34.513Z,12.49
2023-03-13T21:37:02.347Z,12.47
2023-03-13T21:39:43.009Z,12.24
2023-03-13T21:42:13.119Z,11.65
2023-03-13T21:44:41.446Z,12.16
2023-03-13T21:47:09.652Z,12.26
2023-03-13T21:49:44.906Z,12.30
2023-03-13T21:52:12.832Z,12.33
2023-03-13T21:54:42.279Z,12.36
2023-03-13T21:57:10.431Z,12.22
2023-03-13T21:59:38.310Z,12.40
2023-03-13T22:02:09.375Z,12.40
2023-03-13T22:04:40.194Z,12.27
2023-03-13T22:07:08.387Z,12.50
2023-03-13T22:09:36.264Z,12.45
2023-03-13T22:12:05.856Z,12.40
2023-03-13T22:14:33.742Z,12.44
2023-03-13T22:17:04.702Z,12.42
2023-03-13T22:19:32.547Z,12.50
2023-03-13T22:22:02.046Z,12.52
2023-03-13T22:24:29.849Z,12.46
2023-03-13T22:27:00.633Z,12.29
2023-03-13T22:29:31.918Z,12.38
2023-03-13T22:31:59.940Z,12.42
2023-03-13T22:34:33.048Z,12.21
2023-03-13T22:37:01.123Z,11.81
2023-03-13T22:39:30.808Z,12.38
2023-03-13T22:41:58.689Z,12.33
2023-03-13T22:44:26.434Z,12.28
2023-03-13T22:46:58.914Z,12.08
2023-03-13T22:49:26.892Z,12.24
2023-03-13T22:51:54.709Z,12.24
2023-03-13T22:54:22.499Z,12.19
2023-03-13T22:56:55.181Z,12.12
2023-03-13T22:59:26.483Z,12.02
2023-03-13T23:01:55.795Z,12.09
2023-03-13T23:04:23.754Z,12.03
2023-03-13T23:06:51.613Z,12.02
2023-03-13T23:09:19.436Z,11.86
2023-03-13T23:11:47.289Z,11.92
2023-03-13T23:14:15.541Z,11.89
2023-03-13T23:16:43.529Z,11.92
2023-03-13T23:19:14.420Z,12.03
2023-03-13T23:21:42.468Z,11.94
2023-03-13T23:24:10.409Z,11.98
2023-03-13T23:26:38.334Z,12.04
2023-03-13T23:29:06.572Z,12.04
2023-03-13T23:31:34.804Z,12.02
2023-03-13T23:34:05.710Z,11.95
2023-03-13T23:36:34.834Z,12.00
2023-03-13T23:39:03.984Z,12.04
2023-03-13T23:41:31.929Z,11.95
2023-03-13T23:44:00.933Z,12.02
2023-03-13T23:46:28.873Z,11.98
2023-03-13T23:48:58.273Z,12.04
2023-03-13T23:51:26.876Z,12.06
2023-03-13T23:53:56.063Z,11.92
2023-03-13T23:56:25.284Z,12.03
2023-03-13T23:58:54.581Z,12.15
